Port Columbus International Airport Columbus US
ICAO: KCMH
IATA: CMH
Category: Large
Scheduled Services: Yes

Elevation: 815 ft
TransAlt. 18000 ft.

Airport Communications:
COLUMBUS APP/DEP:33.822
COLUMBUS APP/DEP:118.2
ATIS:124.6
CLNC DEL:126.3
GND:121.9
DAYTON RDO:122.2
TWR:132.7
UNICOM:122.95

KCMH Zoom In..

Runways:

(A) RW 10L length 8000 ft width 150 ft
ILS 109.10 / hdg 101

(B) RW 10R length 10113 ft width 150 ft
ILS 111.75 / hdg 101

(C) RW 28L length 10113 ft width 150 ft
ILS 111.75 / hdg 281

(D) RW 28R length 8000 ft width 150 ft
ILS 109.10 / hdg 281

Location; KCMH
Day. 26 / Time. 12.51 Zulu
* Altimeter: 29.87
* Temperature: 22° c. 71.6°f.
* Wind from: 200° Speed 05 kn.
Dewpoint: 16° c.
Visibility: 10 Statute Miles.
Clouds: Scattered 5000 ft.
Clouds: Broken 6000 ft.
Clouds: Overcast 8500 ft.

KCMH 261251Z 20005KT 10SM SCT050 BKN060 OVC085 22/16 A2987 RMK AO2 SLP109 T02220161


Wind From 200°
Speed 05 kn.

 
 
jpsmedia.com for Web Design SOUNDCLOUD worldairports.se 2018   terms of use